Time;durP1;ratioP1;P1;durP2;ratioP2;P2;SDS_P1;SDS_P2;PMS_P1;PMS_P2;Temp;Humidity;BMP_temperature;BMP_pressure;BME280_temperature;BME280_humidity;BME280_pressure;Samples;Min_cycle;Max_cycle;Signal;HPM_P1;HPM_P2
2021/11/10 00:02:11;;;;;;;50.77;25.50;;;1.10;99.90;;;;;;4365709;32;20185;-66
2021/11/10 00:04:38;;;;;;;48.37;24.83;;;1.00;99.90;;;;;;4365849;32;20172;-67
2021/11/10 00:07:05;;;;;;;48.87;25.10;;;1.00;99.90;;;;;;4363920;32;20254;-66
2021/11/10 00:09:32;;;;;;;50.00;25.27;;;0.90;99.90;;;;;;4353594;32;20194;-66
2021/11/10 00:12:00;;;;;;;58.53;27.03;;;0.90;99.90;;;;;;4364749;32;20276;-67
2021/11/10 00:14:26;;;;;;;55.30;25.77;;;0.90;99.90;;;;;;4363613;32;20172;-66
2021/11/10 00:16:55;;;;;;;52.83;26.93;;;0.80;99.90;;;;;;4365568;32;20202;-66
2021/11/10 00:19:23;;;;;;;54.67;26.20;;;0.80;99.90;;;;;;4372268;32;20175;-66
2021/11/10 00:21:51;;;;;;;52.73;26.73;;;0.80;99.90;;;;;;4364156;32;20496;-66
2021/11/10 00:24:18;;;;;;;54.43;27.40;;;0.80;99.90;;;;;;4352026;32;20436;-67
2021/11/10 00:26:45;;;;;;;57.27;26.80;;;0.80;99.90;;;;;;4364041;32;20251;-66
2021/11/10 00:29:12;;;;;;;55.07;26.03;;;0.90;99.90;;;;;;4365946;32;20238;-66
2021/11/10 00:31:39;;;;;;;55.00;25.97;;;0.80;99.90;;;;;;4365851;32;20254;-66
2021/11/10 00:34:06;;;;;;;55.63;26.73;;;0.80;99.90;;;;;;4379478;32;20162;-67
2021/11/10 00:36:33;;;;;;;56.60;27.43;;;0.80;99.90;;;;;;4365290;32;20233;-67
2021/11/10 00:38:59;;;;;;;55.00;28.20;;;0.90;99.90;;;;;;4364161;32;20510;-67
2021/11/10 00:41:26;;;;;;;58.43;27.23;;;0.90;99.90;;;;;;4363782;32;20190;-67
2021/11/10 00:43:53;;;;;;;52.07;25.17;;;0.90;99.90;;;;;;4365499;32;20234;-66
2021/11/10 00:46:20;;;;;;;54.27;26.37;;;0.90;99.90;;;;;;4365266;32;20243;-66
2021/11/10 00:48:47;;;;;;;58.27;27.07;;;0.90;99.90;;;;;;4365214;32;20171;-67
2021/11/10 00:51:14;;;;;;;54.40;26.10;;;0.90;99.90;;;;;;4365036;32;20179;-66
2021/11/10 00:53:40;;;;;;;57.50;26.73;;;0.80;99.90;;;;;;4363767;32;20251;-66
2021/11/10 00:56:07;;;;;;;57.17;28.13;;;0.90;99.90;;;;;;4379230;32;20140;-67
2021/11/10 00:58:34;;;;;;;54.10;26.87;;;0.90;99.90;;;;;;4364454;32;20168;-66
2021/11/10 01:01:01;;;;;;;54.60;26.80;;;0.90;99.90;;;;;;4378966;32;20199;-66
2021/11/10 01:03:28;;;;;;;52.43;25.97;;;0.90;99.90;;;;;;4364399;32;20195;-66
2021/11/10 01:05:57;;;;;;;54.40;26.03;;;0.90;99.90;;;;;;4374913;32;20229;-66
2021/11/10 01:08:25;;;;;;;54.50;26.93;;;0.90;99.90;;;;;;4380167;32;20193;-67
2021/11/10 01:10:54;;;;;;;59.03;27.27;;;0.80;99.90;;;;;;4379184;32;20532;-66
2021/11/10 01:13:25;;;;;;;53.63;26.43;;;0.80;99.90;;;;;;4379386;32;20221;-66
2021/11/10 01:15:51;;;;;;;54.50;26.73;;;0.80;99.90;;;;;;4378749;32;20182;-66
2021/11/10 01:18:18;;;;;;;55.83;27.37;;;0.80;99.90;;;;;;4379861;32;20172;-67
2021/11/10 01:20:45;;;;;;;54.53;26.53;;;0.80;99.90;;;;;;4393187;32;20492;-67
2021/11/10 01:23:12;;;;;;;58.87;27.57;;;0.80;99.90;;;;;;4380090;32;20168;-67
2021/11/10 01:25:39;;;;;;;57.90;27.83;;;0.70;99.90;;;;;;4381983;32;20209;-67
2021/11/10 01:28:08;;;;;;;58.87;28.30;;;0.70;99.90;;;;;;4381125;32;20188;-67
2021/11/10 01:30:36;;;;;;;58.47;29.47;;;0.70;99.90;;;;;;4396697;32;20154;-67
2021/11/10 01:33:04;;;;;;;56.47;28.30;;;0.70;99.90;;;;;;4396487;32;20260;-67
2021/11/10 01:35:30;;;;;;;59.63;28.40;;;0.70;99.90;;;;;;4379659;32;20186;-66
2021/11/10 01:37:57;;;;;;;63.33;29.27;;;0.70;99.90;;;;;;4375622;32;20172;-66
2021/11/10 01:40:24;;;;;;;59.90;28.70;;;0.70;99.90;;;;;;4380862;32;20144;-66
2021/11/10 01:42:51;;;;;;;62.73;28.50;;;0.70;99.90;;;;;;4366695;32;20167;-66
2021/11/10 01:45:19;;;;;;;62.30;28.60;;;0.70;99.90;;;;;;4380561;32;20235;-66
2021/11/10 01:47:46;;;;;;;59.53;28.47;;;0.70;99.90;;;;;;4380114;32;20143;-66
2021/11/10 01:50:17;;;;;;;58.97;28.60;;;0.70;99.90;;;;;;4366930;32;20285;-66
2021/11/10 01:52:46;;;;;;;60.83;29.73;;;0.70;99.90;;;;;;4366232;32;20202;-66
2021/11/10 01:55:13;;;;;;;60.70;29.57;;;0.60;99.90;;;;;;4367326;32;20164;-66
2021/11/10 01:57:40;;;;;;;63.50;29.40;;;0.60;99.90;;;;;;4367528;32;20184;-66
2021/11/10 02:00:17;;;;;;;61.67;28.77;;;0.60;99.90;;;;;;4381397;32;20454;-66
2021/11/10 02:02:44;;;;;;;60.50;29.17;;;0.60;99.90;;;;;;4367925;32;20191;-66
2021/11/10 02:05:14;;;;;;;63.57;29.27;;;0.60;99.90;;;;;;4365568;32;20190;-66
2021/11/10 02:07:41;;;;;;;64.33;29.90;;;0.70;99.90;;;;;;4366792;32;20255;-66
2021/11/10 02:10:10;;;;;;;65.57;30.37;;;0.60;99.90;;;;;;4373722;32;20247;-66
2021/11/10 02:12:38;;;;;;;63.73;29.97;;;0.60;99.90;;;;;;4380607;32;20148;-66
2021/11/10 02:15:08;;;;;;;66.17;30.97;;;0.60;99.90;;;;;;4365842;32;20186;-66
2021/11/10 02:17:37;;;;;;;64.17;30.67;;;0.60;99.90;;;;;;4366150;32;20272;-66
2021/11/10 02:20:06;;;;;;;62.47;30.33;;;0.60;99.90;;;;;;4365621;32;20207;-66
2021/11/10 02:22:33;;;;;;;64.10;30.17;;;0.60;99.90;;;;;;4367076;32;20191;-66
2021/11/10 02:25:02;;;;;;;61.83;29.40;;;0.60;99.90;;;;;;4365711;32;20172;-66
2021/11/10 02:27:34;;;;;;;65.77;29.50;;;0.70;99.90;;;;;;4366679;32;20191;-66
2021/11/10 02:30:05;;;;;;;60.23;29.03;;;0.70;99.90;;;;;;4365482;32;20183;-66
2021/11/10 02:32:32;;;;;;;63.73;29.77;;;0.70;99.90;;;;;;4367377;32;20164;-66
2021/11/10 02:34:58;;;;;;;61.87;29.57;;;0.70;99.90;;;;;;4365361;32;20191;-68
2021/11/10 02:37:26;;;;;;;55.93;28.03;;;0.70;99.90;;;;;;4364718;32;20548;-66
2021/11/10 02:39:53;;;;;;;64.37;29.63;;;0.70;99.90;;;;;;4365796;32;20175;-66
2021/11/10 02:42:21;;;;;;;60.30;28.63;;;0.70;99.90;;;;;;4365628;32;20186;-66
2021/11/10 02:44:51;;;;;;;57.20;29.20;;;0.70;99.90;;;;;;4366812;32;20240;-66
2021/11/10 02:47:18;;;;;;;59.73;28.77;;;0.70;99.90;;;;;;4366844;32;20184;-66
2021/11/10 02:49:46;;;;;;;59.43;29.20;;;0.70;99.90;;;;;;4366884;32;20289;-66
2021/11/10 02:52:17;;;;;;;63.07;28.33;;;0.70;99.90;;;;;;4380671;32;20266;-66
2021/11/10 02:54:51;;;;;;;59.40;29.67;;;0.70;99.90;;;;;;4365354;32;20168;-66
2021/11/10 02:57:19;;;;;;;62.67;28.93;;;0.70;99.90;;;;;;4365348;32;20174;-66
2021/11/10 02:59:46;;;;;;;64.03;28.17;;;0.70;99.90;;;;;;4378740;32;20198;-66
2021/11/10 03:02:14;;;;;;;60.60;28.27;;;0.70;99.90;;;;;;4365824;32;20202;-66
2021/11/10 03:04:44;;;;;;;61.73;29.53;;;0.70;99.90;;;;;;4365757;32;20176;-66
2021/11/10 03:07:13;;;;;;;61.47;29.00;;;0.70;99.90;;;;;;4366863;32;20147;-66
2021/11/10 03:09:40;;;;;;;62.47;30.10;;;0.70;99.90;;;;;;4366200;32;20193;-66
2021/11/10 03:12:08;;;;;;;57.30;28.13;;;0.70;99.90;;;;;;4365032;32;20387;-66
2021/11/10 03:14:37;;;;;;;58.93;28.00;;;0.70;99.90;;;;;;4365659;32;20168;-66
2021/11/10 03:17:08;;;;;;;57.97;27.70;;;0.70;99.90;;;;;;4380107;32;20179;-66
2021/11/10 03:19:36;;;;;;;56.47;28.00;;;0.70;99.90;;;;;;4365272;32;20201;-66
2021/11/10 03:22:06;;;;;;;62.27;28.87;;;0.70;99.90;;;;;;4365281;32;20211;-66
2021/11/10 03:24:33;;;;;;;59.37;28.10;;;0.70;99.90;;;;;;4366636;32;20176;-66
2021/11/10 03:27:01;;;;;;;57.13;28.17;;;0.70;99.90;;;;;;4366144;32;20533;-66
2021/11/10 03:29:29;;;;;;;59.27;29.03;;;0.70;99.90;;;;;;4365655;32;20358;-67
2021/11/10 03:31:56;;;;;;;58.80;28.23;;;0.70;99.90;;;;;;4352903;32;20207;-66
2021/11/10 03:34:23;;;;;;;58.63;27.63;;;0.70;99.90;;;;;;4366399;32;20266;-66
2021/11/10 03:36:50;;;;;;;60.00;27.47;;;0.70;99.90;;;;;;4365022;32;20506;-66
2021/11/10 03:39:18;;;;;;;57.40;27.97;;;0.70;99.90;;;;;;4378871;32;20515;-66
2021/11/10 03:41:47;;;;;;;59.33;27.80;;;0.70;99.90;;;;;;4365057;32;20172;-66
2021/11/10 03:44:15;;;;;;;60.43;26.87;;;0.70;99.90;;;;;;4366324;32;20230;-67
2021/11/10 03:46:42;;;;;;;57.50;27.23;;;0.70;99.90;;;;;;4364855;32;20268;-66
2021/11/10 03:49:10;;;;;;;58.53;27.10;;;0.70;99.90;;;;;;4364544;32;20179;-66
2021/11/10 03:51:38;;;;;;;57.73;27.37;;;0.70;99.90;;;;;;4365046;32;20176;-67
2021/11/10 03:54:05;;;;;;;54.97;27.73;;;0.70;99.90;;;;;;4364131;32;20207;-66
2021/11/10 03:56:33;;;;;;;56.53;27.53;;;0.70;99.90;;;;;;4365994;32;20482;-66
2021/11/10 03:58:59;;;;;;;58.03;27.40;;;0.70;99.90;;;;;;4363880;32;20194;-66
2021/11/10 04:01:27;;;;;;;60.17;27.97;;;0.70;99.90;;;;;;4364083;32;20179;-66
2021/11/10 04:03:54;;;;;;;60.30;27.93;;;0.70;99.90;;;;;;4366234;32;20604;-66
2021/11/10 04:06:21;;;;;;;59.27;27.17;;;0.70;99.90;;;;;;4365144;32;20249;-67
2021/11/10 04:08:48;;;;;;;57.63;27.03;;;0.80;99.90;;;;;;4379503;32;20132;-67
2021/11/10 04:11:15;;;;;;;59.47;27.70;;;0.80;99.90;;;;;;4379234;32;20132;-67
2021/11/10 04:13:42;;;;;;;57.90;27.63;;;0.80;99.90;;;;;;4352772;32;20517;-66
2021/11/10 04:16:08;;;;;;;58.03;28.07;;;0.80;99.90;;;;;;4352870;32;20593;-66
2021/11/10 04:18:36;;;;;;;53.70;26.03;;;0.90;99.90;;;;;;4377719;32;20135;-66
2021/11/10 04:21:04;;;;;;;58.33;26.70;;;0.90;99.90;;;;;;4363666;32;20171;-66
2021/11/10 04:23:33;;;;;;;55.27;26.17;;;0.90;99.90;;;;;;4377910;32;20243;-66
2021/11/10 04:26:03;;;;;;;54.73;25.83;;;0.80;99.90;;;;;;4364805;32;20225;-67
2021/11/10 04:28:30;;;;;;;57.90;26.40;;;0.80;99.90;;;;;;4364590;32;20182;-66
2021/11/10 04:30:58;;;;;;;56.57;26.83;;;0.90;99.90;;;;;;4377887;32;20148;-66
2021/11/10 04:33:27;;;;;;;56.63;26.60;;;0.90;99.90;;;;;;4365445;32;20176;-66
2021/11/10 04:35:54;;;;;;;51.20;25.87;;;0.90;99.90;;;;;;4364186;32;20203;-66
2021/11/10 04:38:21;;;;;;;50.87;25.87;;;0.80;99.90;;;;;;4378610;32;20432;-66
2021/11/10 04:40:48;;;;;;;54.87;26.33;;;0.80;99.90;;;;;;4364142;32;20186;-67
2021/11/10 04:43:16;;;;;;;56.00;27.00;;;0.80;99.90;;;;;;4364555;32;20450;-66
2021/11/10 04:45:44;;;;;;;58.33;26.30;;;0.80;99.90;;;;;;4377975;32;20532;-66
2021/11/10 04:48:11;;;;;;;55.53;26.80;;;0.80;99.90;;;;;;4364826;32;20167;-66
2021/11/10 04:50:42;;;;;;;55.47;26.57;;;0.80;99.90;;;;;;4363595;32;20175;-66
2021/11/10 04:53:09;;;;;;;52.20;24.93;;;0.80;99.90;;;;;;4364635;32;20267;-66
2021/11/10 04:55:36;;;;;;;55.80;26.03;;;0.80;99.90;;;;;;4363892;32;20197;-67
2021/11/10 04:58:03;;;;;;;52.83;25.10;;;0.80;99.90;;;;;;4361110;32;20195;-66
2021/11/10 05:00:30;;;;;;;53.63;25.70;;;0.70;99.90;;;;;;4364748;32;20183;-66
2021/11/10 05:02:57;;;;;;;50.43;25.40;;;0.70;99.90;;;;;;4353742;32;20176;-67
2021/11/10 05:05:24;;;;;;;52.70;24.83;;;0.70;99.90;;;;;;4365747;32;20190;-66
2021/11/10 05:07:51;;;;;;;54.83;25.33;;;0.60;99.90;;;;;;4364410;32;20187;-66
2021/11/10 05:10:19;;;;;;;54.53;26.27;;;0.60;99.90;;;;;;4364213;33;20188;-66
2021/11/10 05:12:46;;;;;;;53.90;26.43;;;0.60;99.90;;;;;;4364205;32;20269;-66
2021/11/10 05:15:13;;;;;;;51.70;24.73;;;0.60;99.90;;;;;;4366871;32;20476;-66
2021/11/10 05:17:39;;;;;;;53.10;25.23;;;0.60;99.90;;;;;;4364147;32;20455;-67
2021/11/10 05:20:07;;;;;;;51.90;26.10;;;0.60;99.90;;;;;;4364587;32;20282;-66
2021/11/10 05:22:38;;;;;;;59.23;26.17;;;0.60;99.90;;;;;;4366935;32;20250;-66
2021/11/10 05:25:07;;;;;;;50.00;24.77;;;0.60;99.90;;;;;;4370581;32;20148;-66
2021/11/10 05:27:34;;;;;;;54.93;25.63;;;0.60;99.90;;;;;;4366935;32;20242;-66
2021/11/10 05:30:02;;;;;;;51.63;25.27;;;0.50;99.90;;;;;;4365381;32;20362;-66
2021/11/10 05:32:29;;;;;;;56.60;25.73;;;0.50;99.90;;;;;;4364915;32;20221;-67
2021/11/10 05:34:58;;;;;;;52.87;25.30;;;0.50;99.90;;;;;;4365342;32;20171;-66
2021/11/10 05:37:28;;;;;;;49.20;24.77;;;0.40;99.90;;;;;;4365870;32;20461;-66
2021/11/10 05:39:55;;;;;;;49.57;24.97;;;0.40;99.90;;;;;;4363749;32;20187;-66
2021/11/10 05:42:24;;;;;;;49.87;25.03;;;0.40;99.90;;;;;;4364770;32;20410;-66
2021/11/10 05:44:53;;;;;;;57.57;25.67;;;0.40;99.90;;;;;;4365924;32;20140;-67
2021/11/10 05:47:20;;;;;;;50.23;24.93;;;0.50;99.90;;;;;;4363503;33;20439;-66
2021/11/10 05:49:48;;;;;;;48.87;25.87;;;0.50;99.90;;;;;;4365211;32;20183;-66
2021/11/10 05:52:14;;;;;;;51.93;25.10;;;0.50;99.90;;;;;;4365327;32;20467;-66
2021/11/10 05:54:41;;;;;;;54.53;25.90;;;0.50;99.90;;;;;;4363850;32;20164;-66
2021/11/10 05:57:12;;;;;;;51.03;24.53;;;0.50;99.90;;;;;;4366378;32;20194;-66
2021/11/10 05:59:40;;;;;;;51.67;25.13;;;0.40;99.90;;;;;;4363311;32;20187;-66
2021/11/10 06:02:07;;;;;;;55.13;24.90;;;0.40;99.90;;;;;;4363382;33;20544;-66
2021/11/10 06:04:34;;;;;;;51.37;24.80;;;0.40;99.90;;;;;;4365093;32;20236;-66
2021/11/10 06:07:01;;;;;;;50.43;24.17;;;0.40;99.90;;;;;;4365032;32;20194;-66
2021/11/10 06:09:28;;;;;;;50.27;25.60;;;0.40;99.90;;;;;;4364269;32;20203;-66
2021/11/10 06:11:55;;;;;;;44.77;24.50;;;0.40;99.90;;;;;;4364198;32;20187;-66
2021/11/10 06:14:23;;;;;;;52.47;25.63;;;0.40;99.90;;;;;;4363704;32;20530;-66
2021/11/10 06:16:50;;;;;;;50.93;24.57;;;0.40;99.90;;;;;;4365494;32;20156;-67
2021/11/10 06:19:17;;;;;;;55.90;25.60;;;0.40;99.90;;;;;;4363833;32;20264;-67
2021/11/10 06:21:45;;;;;;;48.63;24.30;;;0.50;99.90;;;;;;4363084;33;20199;-66
2021/11/10 06:24:20;;;;;;;53.60;25.93;;;0.50;99.90;;;;;;4364648;32;20165;-66
2021/11/10 06:26:48;;;;;;;49.17;24.83;;;0.50;99.90;;;;;;4366156;32;20205;-66
2021/11/10 06:29:16;;;;;;;52.13;26.23;;;0.40;99.90;;;;;;4363691;32;20187;-67
2021/11/10 06:31:43;;;;;;;50.57;26.03;;;0.50;99.90;;;;;;4364179;32;20191;-66
2021/11/10 06:34:10;;;;;;;53.10;24.23;;;0.50;99.90;;;;;;4368899;32;20167;-66
2021/11/10 06:36:37;;;;;;;54.27;26.47;;;0.60;99.90;;;;;;4368622;32;20258;-67
2021/11/10 06:39:05;;;;;;;51.53;24.67;;;0.60;99.90;;;;;;4363147;32;20203;-66
2021/11/10 06:41:32;;;;;;;47.43;24.80;;;0.60;99.90;;;;;;4363602;32;20539;-66
2021/11/10 06:43:59;;;;;;;48.13;23.97;;;0.60;99.90;;;;;;4364362;32;20175;-66
2021/11/10 06:46:26;;;;;;;54.53;25.80;;;0.60;99.90;;;;;;4364134;32;20248;-66
2021/11/10 06:48:54;;;;;;;52.00;25.97;;;0.70;99.90;;;;;;4364408;32;20260;-66
2021/11/10 06:51:26;;;;;;;46.87;24.47;;;0.70;99.90;;;;;;4364697;32;20140;-66
2021/11/10 06:53:53;;;;;;;49.63;24.47;;;0.80;99.90;;;;;;4364628;32;20152;-66
2021/11/10 06:56:20;;;;;;;53.13;25.43;;;0.90;99.90;;;;;;4362702;33;20194;-67
2021/11/10 06:58:48;;;;;;;50.53;24.03;;;0.90;99.90;;;;;;4362669;32;20243;-66
2021/11/10 07:01:16;;;;;;;50.77;24.23;;;1.00;99.90;;;;;;4364468;32;20198;-66
2021/11/10 07:03:43;;;;;;;46.03;24.23;;;1.10;99.90;;;;;;4363793;32;20519;-66
2021/11/10 07:06:10;;;;;;;50.93;25.43;;;1.10;99.90;;;;;;4367874;32;20136;-67
2021/11/10 07:08:37;;;;;;;48.77;24.53;;;1.20;99.90;;;;;;4370869;32;20534;-66
2021/11/10 07:11:04;;;;;;;46.07;24.57;;;1.20;99.90;;;;;;4363345;32;20203;-66
2021/11/10 07:13:31;;;;;;;50.73;24.67;;;1.30;99.90;;;;;;4364277;32;20206;-66
2021/11/10 07:15:58;;;;;;;51.00;24.43;;;1.40;99.90;;;;;;4364371;32;20490;-66
2021/11/10 07:18:25;;;;;;;52.47;24.50;;;1.40;99.90;;;;;;4362841;33;20231;-69
2021/11/10 07:20:51;;;;;;;46.30;24.90;;;1.50;99.90;;;;;;4362900;33;20413;-68
2021/11/10 07:23:18;;;;;;;47.53;24.87;;;1.60;99.90;;;;;;4365017;32;20140;-67
2021/11/10 07:25:45;;;;;;;48.50;24.63;;;1.70;99.90;;;;;;4362865;32;20183;-67
2021/11/10 07:28:12;;;;;;;48.40;24.93;;;2.00;99.90;;;;;;4364132;32;20184;-67
2021/11/10 07:30:40;;;;;;;42.37;22.23;;;2.50;99.90;;;;;;4363919;32;20198;-67
2021/11/10 07:33:09;;;;;;;45.80;23.07;;;2.90;99.90;;;;;;4364024;33;20166;-66
2021/11/10 07:35:36;;;;;;;40.03;22.03;;;3.40;99.90;;;;;;4363273;32;20192;-67
2021/11/10 07:38:04;;;;;;;37.77;21.07;;;3.60;99.90;;;;;;4371583;32;20218;-67
2021/11/10 07:40:31;;;;;;;36.50;20.63;;;3.80;99.90;;;;;;4362442;33;20525;-67
2021/11/10 07:42:59;;;;;;;36.07;20.17;;;4.10;99.90;;;;;;4364242;32;20541;-67
2021/11/10 07:45:35;;;;;;;38.47;20.17;;;4.20;99.90;;;;;;4364229;32;20197;-67
2021/11/10 07:48:04;;;;;;;38.27;20.07;;;4.30;99.90;;;;;;4363025;32;20530;-67
2021/11/10 07:50:33;;;;;;;41.07;20.90;;;4.50;99.90;;;;;;4363677;32;20156;-67
2021/11/10 07:53:00;;;;;;;39.77;20.40;;;4.70;99.90;;;;;;4362693;32;20252;-66
2021/11/10 07:55:28;;;;;;;41.43;20.70;;;4.60;99.90;;;;;;4362101;32;20199;-67
2021/11/10 07:57:55;;;;;;;34.07;19.77;;;4.70;99.90;;;;;;4364060;32;20205;-67
2021/11/10 08:00:40;;;;;;;34.70;19.90;;;4.90;99.90;;;;;;4364737;32;20231;-66
2021/11/10 08:03:08;;;;;;;37.63;20.73;;;4.90;99.90;;;;;;4364533;32;20253;-66
2021/11/10 08:05:35;;;;;;;35.47;18.77;;;5.10;99.90;;;;;;4366659;32;20210;-66
2021/11/10 08:08:03;;;;;;;35.43;18.80;;;5.10;99.90;;;;;;4379013;32;20142;-67
2021/11/10 08:10:54;;;;;;;35.83;19.67;;;5.00;99.90;;;;;;4371333;32;20225;-67
2021/11/10 08:13:22;;;;;;;36.17;18.80;;;5.20;99.90;;;;;;4378198;32;20182;-67
2021/11/10 08:15:50;;;;;;;34.13;19.23;;;5.60;99.90;;;;;;4365009;32;20166;-67
2021/11/10 08:18:17;;;;;;;33.50;19.20;;;5.90;99.90;;;;;;4379628;32;20148;-67
2021/11/10 08:20:44;;;;;;;34.23;18.53;;;6.20;99.90;;;;;;4364173;32;20177;-67
2021/11/10 08:23:13;;;;;;;35.37;18.60;;;6.40;99.90;;;;;;4364462;32;20177;-67
2021/11/10 08:25:40;;;;;;;31.87;17.53;;;6.70;99.90;;;;;;4379588;32;20157;-67
2021/11/10 08:28:07;;;;;;;32.73;17.93;;;7.00;99.90;;;;;;4365928;32;20534;-67
2021/11/10 08:30:34;;;;;;;34.07;17.97;;;7.30;99.90;;;;;;4378075;32;20165;-66
2021/11/10 08:33:01;;;;;;;29.57;17.53;;;7.30;99.90;;;;;;4364416;32;20204;-67
2021/11/10 08:35:28;;;;;;;31.73;18.27;;;7.10;99.90;;;;;;4366427;32;20250;-67
2021/11/10 08:37:56;;;;;;;33.23;18.30;;;6.90;99.90;;;;;;4369048;32;20202;-67
2021/11/10 08:40:24;;;;;;;32.90;17.40;;;6.70;99.90;;;;;;4367931;32;20189;-66
2021/11/10 08:42:52;;;;;;;32.10;17.93;;;6.40;99.90;;;;;;4382726;32;20138;-66
2021/11/10 08:45:26;;;;;;;32.77;18.77;;;6.20;99.90;;;;;;4368277;32;20185;-66
2021/11/10 08:47:57;;;;;;;33.00;18.67;;;6.10;99.90;;;;;;4368766;32;20172;-67
2021/11/10 08:50:26;;;;;;;34.80;17.63;;;6.00;99.90;;;;;;4367232;32;20219;-66
2021/11/10 08:52:55;;;;;;;30.90;17.67;;;5.90;99.90;;;;;;4368900;32;20161;-65
2021/11/10 08:55:22;;;;;;;31.97;17.60;;;5.90;99.90;;;;;;4381878;32;20192;-66
2021/11/10 08:57:52;;;;;;;32.70;17.77;;;5.80;99.90;;;;;;4366831;32;20166;-66
2021/11/10 09:00:24;;;;;;;31.63;17.80;;;5.70;99.90;;;;;;4382716;32;20203;-66
2021/11/10 09:02:52;;;;;;;30.90;17.87;;;5.70;99.90;;;;;;4373903;32;20297;-66
2021/11/10 09:05:20;;;;;;;35.00;18.67;;;5.70;99.90;;;;;;4381780;32;20157;-66
2021/11/10 09:07:47;;;;;;;31.93;18.57;;;5.80;99.90;;;;;;4367652;32;20181;-66
2021/11/10 09:10:18;;;;;;;32.40;18.83;;;5.80;99.90;;;;;;4367171;32;20187;-66
2021/11/10 09:12:45;;;;;;;34.30;18.17;;;5.70;99.90;;;;;;4381289;32;20169;-65
2021/11/10 09:15:14;;;;;;;32.00;18.13;;;5.70;99.90;;;;;;4368185;32;20186;-66
2021/11/10 09:17:42;;;;;;;35.47;19.60;;;5.70;99.90;;;;;;4366571;32;20182;-66
2021/11/10 09:20:12;;;;;;;33.33;18.23;;;5.80;99.90;;;;;;4368208;32;20183;-65
2021/11/10 09:22:40;;;;;;;33.23;18.33;;;5.80;99.90;;;;;;4381311;32;20387;-66
2021/11/10 09:25:10;;;;;;;33.67;18.20;;;5.80;99.90;;;;;;4367256;32;20240;-66
2021/11/10 09:27:39;;;;;;;32.47;17.83;;;5.80;99.90;;;;;;4366680;32;20168;-66
2021/11/10 09:31:10;;;;;;;31.87;20.25;;;5.90;99.90;;;;;;4481761;31;20400;-67
2021/11/10 09:33:40;;;;;;;33.60;18.10;;;6.00;99.90;;;;;;4467738;32;20545;-67
2021/11/10 09:36:08;;;;;;;30.73;17.43;;;5.90;99.90;;;;;;4454427;32;20182;-68
2021/11/10 09:38:36;;;;;;;29.27;17.07;;;5.90;99.90;;;;;;4450806;32;20173;-67
2021/11/10 09:41:05;;;;;;;31.00;16.67;;;6.00;99.90;;;;;;4452205;32;20169;-67
2021/11/10 09:43:35;;;;;;;31.17;16.83;;;6.10;99.90;;;;;;4450406;32;20537;-67
2021/11/10 09:46:03;;;;;;;35.67;17.23;;;6.20;99.90;;;;;;4452215;32;20170;-67
2021/11/10 09:48:30;;;;;;;32.97;16.33;;;6.30;99.90;;;;;;4453867;32;20183;-67
2021/11/10 09:50:58;;;;;;;29.43;16.60;;;6.50;99.90;;;;;;4457116;32;20176;-67
2021/11/10 09:53:30;;;;;;;29.27;16.30;;;6.70;99.90;;;;;;4451437;32;20229;-67
2021/11/10 09:55:59;;;;;;;28.43;16.47;;;6.90;99.90;;;;;;4452351;32;20162;-68
2021/11/10 09:58:27;;;;;;;30.83;15.97;;;7.00;99.90;;;;;;4451001;32;20170;-66
2021/11/10 10:01:01;;;;;;;26.73;15.63;;;7.00;99.90;;;;;;4450404;32;20181;-67
2021/11/10 10:03:28;;;;;;;30.73;16.67;;;7.10;99.90;;;;;;4451630;32;20217;-67
2021/11/10 10:05:56;;;;;;;26.27;15.50;;;7.20;99.90;;;;;;4450884;32;20544;-67
2021/11/10 10:08:24;;;;;;;27.13;16.60;;;7.30;99.90;;;;;;4452450;32;20432;-70
2021/11/10 10:10:51;;;;;;;26.97;15.97;;;7.40;99.90;;;;;;4451326;32;20587;-68
2021/11/10 10:13:20;;;;;;;28.07;15.90;;;7.40;99.90;;;;;;4450628;32;20386;-68
2021/11/10 10:15:48;;;;;;;27.87;16.17;;;7.50;99.90;;;;;;4451228;32;20235;-68
2021/11/10 10:18:20;;;;;;;26.30;15.60;;;7.50;99.90;;;;;;4453136;32;20210;-68
2021/11/10 10:21:00;;;;;;;29.37;16.13;;;7.60;99.90;;;;;;4451098;32;20192;-68
2021/11/10 10:23:31;;;;;;;24.17;14.83;;;7.60;99.90;;;;;;4452201;32;20145;-68
2021/11/10 10:25:59;;;;;;;28.93;15.63;;;7.60;99.90;;;;;;4450622;32;20216;-67
2021/11/10 10:28:36;;;;;;;24.23;15.00;;;7.70;99.90;;;;;;4451510;32;20172;-66
2021/11/10 10:31:11;;;;;;;27.47;15.70;;;7.80;99.90;;;;;;4450274;32;20199;-67
2021/11/10 10:33:44;;;;;;;24.93;15.07;;;7.80;99.90;;;;;;4452624;32;20235;-66
2021/11/10 10:36:14;;;;;;;26.20;14.73;;;7.80;99.90;;;;;;4456551;32;20154;-67
2021/11/10 10:38:43;;;;;;;24.07;15.20;;;7.80;99.90;;;;;;4450773;32;20198;-66
2021/11/10 10:41:11;;;;;;;25.23;14.43;;;7.90;99.90;;;;;;4445257;32;20193;-66
2021/11/10 10:43:52;;;;;;;23.30;14.20;;;8.00;99.90;;;;;;4441417;32;20533;-67
2021/11/10 10:46:25;;;;;;;25.60;14.83;;;8.00;99.90;;;;;;4440972;32;20163;-67
2021/11/10 10:49:09;;;;;;;24.77;14.20;;;8.10;99.90;;;;;;4441391;32;20256;-67
2021/11/10 10:51:36;;;;;;;25.23;14.27;;;8.20;99.90;;;;;;4439573;32;20204;-67
2021/11/10 10:54:09;;;;;;;23.33;13.60;;;8.30;99.90;;;;;;4440757;32;20170;-67
2021/11/10 10:56:37;;;;;;;23.27;13.47;;;8.40;99.90;;;;;;4438372;32;20417;-66
2021/11/10 10:59:08;;;;;;;21.67;13.57;;;8.50;99.90;;;;;;4438463;32;20178;-69
2021/11/10 11:01:40;;;;;;;20.93;12.73;;;8.50;99.90;;;;;;4439301;32;20173;-68
2021/11/10 11:04:14;;;;;;;23.13;13.70;;;8.60;99.90;;;;;;4454276;32;20190;-68
2021/11/10 11:07:03;;;;;;;20.57;12.03;;;8.70;99.90;;;;;;4454894;32;20166;-68
2021/11/10 11:09:40;;;;;;;22.90;12.10;;;8.70;99.90;;;;;;4454633;32;20178;-69
2021/11/10 11:12:27;;;;;;;22.17;13.07;;;8.80;99.90;;;;;;4454737;32;20211;-68
2021/11/10 11:15:24;;;;;;;22.50;12.63;;;8.80;99.90;;;;;;4455943;32;20226;-69
2021/11/10 11:17:55;;;;;;;20.97;12.03;;;8.90;99.90;;;;;;4454126;32;20212;-67
2021/11/10 11:20:34;;;;;;;21.93;13.20;;;9.10;99.90;;;;;;4453223;32;20266;-68
2021/11/10 11:23:03;;;;;;;22.50;12.60;;;9.60;99.90;;;;;;4446870;32;20223;-68
2021/11/10 11:25:39;;;;;;;23.10;12.40;;;10.30;99.90;;;;;;4438954;32;20238;-68
2021/11/10 11:28:10;;;;;;;22.00;11.87;;;11.50;99.90;;;;;;4438504;32;20242;-68
2021/11/10 11:30:51;;;;;;;22.07;12.17;;;12.50;99.90;;;;;;4441425;32;20175;-68
2021/11/10 11:33:21;;;;;;;18.97;11.63;;;13.40;99.90;;;;;;4447386;32;20182;-69
2021/11/10 11:36:01;;;;;;;18.87;11.83;;;14.60;99.90;;;;;;4441929;32;20424;-68
2021/11/10 11:38:31;;;;;;;18.77;11.03;;;15.60;99.90;;;;;;4455397;32;20142;-69
2021/11/10 11:41:00;;;;;;;18.73;11.03;;;16.70;99.90;;;;;;4453762;32;20182;-68
2021/11/10 11:43:29;;;;;;;19.53;11.33;;;17.70;99.90;;;;;;4455417;32;20170;-68
2021/11/10 11:46:00;;;;;;;17.47;10.87;;;18.50;99.80;;;;;;4455557;32;20238;-68
2021/11/10 11:48:28;;;;;;;16.43;10.73;;;19.40;95.70;;;;;;4456410;32;20191;-68
2021/11/10 11:51:03;;;;;;;17.27;10.73;;;19.90;92.70;;;;;;4454804;32;20204;-68
2021/11/10 11:53:33;;;;;;;17.73;10.53;;;19.90;90.30;;;;;;4453538;32;20200;-68
2021/11/10 11:56:06;;;;;;;17.53;11.20;;;19.90;89.00;;;;;;4455435;32;20193;-68
2021/11/10 11:58:38;;;;;;;16.90;10.83;;;20.00;84.90;;;;;;4454948;32;20205;-68
2021/11/10 12:01:11;;;;;;;20.30;11.60;;;19.70;85.70;;;;;;4453935;32;20249;-68
2021/11/10 12:03:50;;;;;;;19.60;11.20;;;19.40;86.30;;;;;;4442683;32;20174;-68
2021/11/10 12:06:18;;;;;;;20.00;11.50;;;18.90;87.10;;;;;;4437998;32;20170;-69
2021/11/10 12:08:51;;;;;;;16.30;11.10;;;18.90;86.10;;;;;;4439526;32;20173;-68
2021/11/10 12:11:28;;;;;;;20.60;12.23;;;18.80;86.70;;;;;;4437516;32;20241;-70
2021/11/10 12:14:07;;;;;;;18.80;11.63;;;18.70;86.70;;;;;;4439795;32;20142;-69
2021/11/10 12:16:58;;;;;;;22.50;11.97;;;18.20;89.20;;;;;;4448321;32;20248;-69
2021/11/10 12:19:28;;;;;;;19.07;11.97;;;17.70;89.80;;;;;;4444786;32;20415;-68
2021/11/10 12:21:59;;;;;;;20.43;11.90;;;17.00;91.20;;;;;;4456589;32;20142;-69
2021/11/10 12:24:41;;;;;;;22.57;12.00;;;16.30;92.70;;;;;;4440903;32;20165;-68
2021/11/10 12:27:18;;;;;;;19.17;12.00;;;15.60;94.00;;;;;;4455310;32;20403;-68
2021/11/10 12:30:01;;;;;;;19.07;11.97;;;14.90;95.60;;;;;;4453738;32;20226;-67
2021/11/10 12:32:33;;;;;;;22.13;12.40;;;14.40;97.70;;;;;;4452997;32;20177;-69
2021/11/10 12:35:52;;;;;;;20.33;11.90;;;13.90;99.10;;;;;;4454438;32;20177;-69
2021/11/10 12:38:25;;;;;;;24.30;11.90;;;13.90;99.90;;;;;;4452660;32;20182;-68
2021/11/10 12:40:59;;;;;;;21.20;12.13;;;14.10;99.90;;;;;;4454426;32;20174;-68
2021/11/10 12:43:36;;;;;;;20.37;11.67;;;14.30;99.90;;;;;;4454789;32;20205;-69
2021/11/10 12:46:06;;;;;;;19.87;11.60;;;14.90;99.80;;;;;;4440012;32;20515;-68
2021/11/10 12:48:43;;;;;;;19.87;11.70;;;15.60;98.40;;;;;;4454484;32;20534;-68